createdAt,value
2018-12-19T00:01:39.890Z,5.30
2018-12-19T00:04:07.692Z,5.30
2018-12-19T00:06:35.234Z,5.20
2018-12-19T00:09:04.151Z,5.30
2018-12-19T00:11:31.713Z,5.30
2018-12-19T00:13:59.793Z,5.30
2018-12-19T00:16:27.373Z,5.30
2018-12-19T00:18:55.033Z,5.30
2018-12-19T00:21:22.559Z,5.20
2018-12-19T00:23:50.125Z,5.20
2018-12-19T00:26:17.792Z,5.20
2018-12-19T00:28:45.351Z,5.10
2018-12-19T00:31:12.895Z,5.10
2018-12-19T00:33:40.495Z,5.10
2018-12-19T00:36:08.241Z,5.10
2018-12-19T00:38:35.902Z,5.10
2018-12-19T00:41:03.605Z,5.20
2018-12-19T00:43:31.145Z,5.30
2018-12-19T00:45:58.701Z,5.30
2018-12-19T00:48:26.364Z,5.30
2018-12-19T00:50:53.923Z,5.30
2018-12-19T00:53:21.452Z,5.30
2018-12-19T00:55:49.013Z,5.20
2018-12-19T00:58:16.557Z,5.30
2018-12-19T01:00:44.091Z,5.30
2018-12-19T01:03:11.665Z,5.30
2018-12-19T01:05:39.192Z,5.20
2018-12-19T01:08:06.969Z,5.20
2018-12-19T01:10:34.518Z,5.20
2018-12-19T01:13:02.050Z,5.20
2018-12-19T01:15:29.600Z,5.20
2018-12-19T01:17:57.126Z,5.20
2018-12-19T01:20:24.716Z,5.10
2018-12-19T01:22:52.245Z,5.20
2018-12-19T01:25:19.806Z,5.10
2018-12-19T01:27:47.324Z,5.20
2018-12-19T01:30:15.069Z,5.30
2018-12-19T01:32:43.330Z,5.30
2018-12-19T01:35:10.902Z,5.30
2018-12-19T01:37:39.077Z,5.30
2018-12-19T01:40:06.613Z,5.20
2018-12-19T01:42:34.805Z,5.20
2018-12-19T01:45:02.317Z,5.20
2018-12-19T01:47:29.856Z,5.20
2018-12-19T01:49:57.489Z,5.20
2018-12-19T01:52:25.028Z,5.20
2018-12-19T01:54:52.566Z,5.20
2018-12-19T01:57:20.167Z,5.20
2018-12-19T01:59:47.864Z,5.30
2018-12-19T02:02:15.378Z,5.30
2018-12-19T02:04:42.953Z,5.30
2018-12-19T02:07:10.643Z,5.30
2018-12-19T02:09:38.181Z,5.30
2018-12-19T02:12:05.703Z,5.30
2018-12-19T02:14:33.250Z,5.20
2018-12-19T02:17:01.050Z,5.20
2018-12-19T02:19:28.746Z,5.20
2018-12-19T02:21:56.265Z,5.10
2018-12-19T02:24:23.848Z,5.10
2018-12-19T02:26:51.386Z,5.00
2018-12-19T02:29:19.004Z,5.00
2018-12-19T02:31:46.562Z,5.10
2018-12-19T02:34:14.457Z,5.20
2018-12-19T02:36:42.034Z,5.20
2018-12-19T02:39:09.614Z,5.20
2018-12-19T02:41:37.174Z,5.20
2018-12-19T02:44:04.728Z,5.20
2018-12-19T02:46:32.296Z,5.10
2018-12-19T02:49:00.084Z,5.10
2018-12-19T02:51:27.648Z,5.30
2018-12-19T02:53:55.160Z,5.40
2018-12-19T02:56:22.718Z,5.30
2018-12-19T02:58:50.578Z,5.30
2018-12-19T03:01:18.092Z,5.40
2018-12-19T03:03:45.646Z,5.50
2018-12-19T03:06:13.162Z,5.40
2018-12-19T03:08:40.704Z,5.60
2018-12-19T03:11:09.234Z,5.50
2018-12-19T03:13:36.898Z,5.40
2018-12-19T03:16:04.623Z,5.30
2018-12-19T03:18:32.181Z,5.20
2018-12-19T03:20:59.742Z,5.30
2018-12-19T03:23:28.088Z,5.40
2018-12-19T03:25:55.688Z,5.40
2018-12-19T03:28:23.218Z,5.40
2018-12-19T03:30:53.302Z,5.30
2018-12-19T03:33:20.382Z,5.40
2018-12-19T03:35:48.218Z,5.30
2018-12-19T03:38:17.723Z,5.40
2018-12-19T03:40:45.345Z,5.30
2018-12-19T03:43:12.873Z,5.40
2018-12-19T03:45:40.605Z,5.50
2018-12-19T03:48:10.777Z,5.50
2018-12-19T03:50:38.353Z,5.50
2018-12-19T03:53:06.059Z,5.40
2018-12-19T03:55:33.619Z,5.50
2018-12-19T03:58:01.134Z,5.40
2018-12-19T04:00:28.702Z,5.60
2018-12-19T04:02:56.299Z,5.60
2018-12-19T04:05:23.854Z,5.60
2018-12-19T04:07:51.896Z,5.70
2018-12-19T04:10:19.454Z,5.90
2018-12-19T04:12:47.025Z,5.90
2018-12-19T04:15:14.914Z,5.80
2018-12-19T04:17:42.477Z,5.80
2018-12-19T04:20:10.176Z,5.70
2018-12-19T04:22:37.702Z,5.70
2018-12-19T04:25:05.893Z,5.70
2018-12-19T04:27:33.441Z,5.80
2018-12-19T04:30:01.266Z,5.80
2018-12-19T04:32:29.236Z,5.80
2018-12-19T04:34:56.748Z,5.80
2018-12-19T04:37:24.328Z,5.90
2018-12-19T04:39:51.864Z,5.90
2018-12-19T04:42:19.425Z,6.00
2018-12-19T04:44:46.985Z,5.90
2018-12-19T04:47:14.983Z,5.80
2018-12-19T04:49:42.769Z,5.90
2018-12-19T04:52:10.281Z,5.80
2018-12-19T04:54:37.842Z,5.90
2018-12-19T04:57:05.399Z,5.70
2018-12-19T04:59:32.966Z,5.80
2018-12-19T05:02:00.514Z,5.70
2018-12-19T05:04:28.025Z,5.70
2018-12-19T05:06:55.599Z,5.90
2018-12-19T05:09:23.151Z,5.90
2018-12-19T05:11:51.175Z,5.90
2018-12-19T05:14:19.196Z,5.90
2018-12-19T05:16:46.749Z,5.90
2018-12-19T05:19:14.321Z,5.80
2018-12-19T05:21:41.875Z,5.80
2018-12-19T05:24:09.437Z,5.90
2018-12-19T05:26:36.993Z,5.90
2018-12-19T05:29:04.927Z,5.90
2018-12-19T05:31:32.473Z,5.90
2018-12-19T05:34:00.110Z,5.90
2018-12-19T05:36:27.746Z,5.90
2018-12-19T05:38:55.293Z,5.80
2018-12-19T05:41:22.843Z,5.80
2018-12-19T05:43:50.712Z,5.80
2018-12-19T05:46:18.473Z,5.80
2018-12-19T05:48:46.068Z,5.70
2018-12-19T05:51:13.722Z,5.70
2018-12-19T05:53:41.278Z,5.80
2018-12-19T05:56:08.837Z,5.70
2018-12-19T05:58:36.537Z,5.90
2018-12-19T06:01:04.216Z,5.90
2018-12-19T06:03:47.293Z,5.90
2018-12-19T06:06:15.607Z,5.90
2018-12-19T06:08:43.167Z,5.90
2018-12-19T06:11:11.104Z,5.80
2018-12-19T06:13:38.667Z,5.80
2018-12-19T06:16:06.430Z,5.70
2018-12-19T06:18:33.950Z,5.80
2018-12-19T06:21:01.527Z,5.80
2018-12-19T06:23:29.074Z,5.80
2018-12-19T06:25:56.660Z,5.80
2018-12-19T06:28:24.193Z,5.90
2018-12-19T06:30:51.818Z,5.90
2018-12-19T06:33:24.646Z,5.90
2018-12-19T06:35:52.192Z,5.80
2018-12-19T06:38:20.723Z,5.90
2018-12-19T06:40:48.491Z,5.90
2018-12-19T06:43:16.009Z,5.80
2018-12-19T06:45:43.636Z,5.90
2018-12-19T06:48:11.168Z,5.90
2018-12-19T06:50:38.829Z,5.90
2018-12-19T06:53:07.975Z,5.90
2018-12-19T06:55:35.515Z,5.90
2018-12-19T06:58:03.072Z,5.90
2018-12-19T07:00:30.791Z,5.90
2018-12-19T07:02:58.345Z,5.90
2018-12-19T07:05:25.931Z,5.90
2018-12-19T07:07:53.537Z,6.00
2018-12-19T07:10:21.175Z,6.00
2018-12-19T07:12:48.707Z,6.20
2018-12-19T07:15:16.268Z,6.30
2018-12-19T07:17:44.394Z,6.30
2018-12-19T07:20:12.470Z,6.10
2018-12-19T07:22:40.065Z,6.20
2018-12-19T07:25:08.409Z,6.20
2018-12-19T07:27:36.214Z,6.00
2018-12-19T07:30:05.927Z,6.00
2018-12-19T07:32:36.452Z,6.10
2018-12-19T07:35:05.785Z,6.20
2018-12-19T07:37:33.857Z,6.30
2018-12-19T07:40:02.277Z,6.30
2018-12-19T07:42:30.005Z,6.20
2018-12-19T07:44:57.562Z,6.20
2018-12-19T07:47:25.157Z,6.20
2018-12-19T07:49:52.766Z,6.30
2018-12-19T07:52:20.350Z,6.30
2018-12-19T07:54:48.161Z,6.30
2018-12-19T07:57:15.679Z,6.30
2018-12-19T07:59:50.203Z,6.20
2018-12-19T08:02:17.846Z,6.40
2018-12-19T08:04:45.651Z,6.40
2018-12-19T08:07:14.197Z,6.40
2018-12-19T08:09:41.982Z,6.40
2018-12-19T08:12:09.780Z,6.40
2018-12-19T08:14:37.320Z,6.40
2018-12-19T08:17:04.888Z,6.40
2018-12-19T08:19:32.461Z,6.20
2018-12-19T08:22:00.051Z,6.20
2018-12-19T08:24:28.445Z,6.30
2018-12-19T08:26:55.992Z,6.40
2018-12-19T08:29:24.408Z,6.40
2018-12-19T08:31:52.232Z,6.30
2018-12-19T08:34:20.111Z,6.30
2018-12-19T08:36:48.051Z,6.30
2018-12-19T08:39:16.693Z,6.30
2018-12-19T08:41:44.834Z,6.30
2018-12-19T08:44:12.397Z,6.30
2018-12-19T08:46:40.150Z,6.30
2018-12-19T08:49:09.003Z,6.30
2018-12-19T08:51:36.979Z,6.30
2018-12-19T08:54:04.731Z,6.30
2018-12-19T08:56:32.501Z,6.30
2018-12-19T08:59:00.089Z,6.20
2018-12-19T09:01:28.539Z,6.20
2018-12-19T09:03:56.129Z,6.20
2018-12-19T09:06:23.674Z,6.20
2018-12-19T09:08:51.221Z,6.10
2018-12-19T09:11:18.763Z,6.10
2018-12-19T09:13:46.281Z,6.20
2018-12-19T09:16:13.837Z,6.10
2018-12-19T09:18:41.401Z,6.30
2018-12-19T09:21:08.995Z,6.30
2018-12-19T09:23:36.514Z,6.40
2018-12-19T09:26:04.096Z,6.30
2018-12-19T09:28:31.857Z,6.30
2018-12-19T09:30:59.524Z,6.30
2018-12-19T09:33:27.760Z,6.30
2018-12-19T09:35:55.669Z,6.30
2018-12-19T09:38:23.281Z,6.30
2018-12-19T09:40:50.853Z,6.30
2018-12-19T09:43:18.736Z,6.30
2018-12-19T09:45:46.773Z,6.40
2018-12-19T09:48:15.614Z,6.40
2018-12-19T09:50:43.284Z,6.30
2018-12-19T09:53:11.444Z,6.30
2018-12-19T09:55:38.995Z,6.40
2018-12-19T09:58:06.627Z,6.40
2018-12-19T10:00:34.254Z,6.50
2018-12-19T10:03:01.846Z,6.40
2018-12-19T10:05:29.989Z,6.40
2018-12-19T10:07:57.865Z,6.40
2018-12-19T10:10:25.684Z,6.40
2018-12-19T10:12:53.453Z,6.40
2018-12-19T10:15:20.992Z,6.40
2018-12-19T10:17:48.985Z,6.50
2018-12-19T10:20:16.553Z,6.60
2018-12-19T10:22:44.179Z,6.50
2018-12-19T10:25:12.540Z,6.60
2018-12-19T10:27:40.131Z,6.60
2018-12-19T10:30:10.892Z,6.60
2018-12-19T10:32:40.148Z,6.60
2018-12-19T10:35:10.112Z,6.60
2018-12-19T10:37:37.683Z,6.70
2018-12-19T10:40:08.202Z,6.80
2018-12-19T10:42:35.736Z,6.70
2018-12-19T10:45:07.024Z,6.70
2018-12-19T10:47:34.692Z,6.70
2018-12-19T10:50:02.946Z,6.70
2018-12-19T10:52:31.434Z,6.70
2018-12-19T10:54:58.968Z,6.60
2018-12-19T10:57:26.606Z,6.70
2018-12-19T10:59:54.293Z,6.70
2018-12-19T11:02:21.949Z,6.70
2018-12-19T11:04:50.643Z,6.70
2018-12-19T11:07:19.142Z,6.70
2018-12-19T11:09:46.960Z,6.70
2018-12-19T11:12:14.863Z,6.80
2018-12-19T11:14:43.547Z,6.90
2018-12-19T11:17:12.205Z,6.90
2018-12-19T11:19:40.644Z,6.90
2018-12-19T11:22:10.128Z,6.90
2018-12-19T11:24:38.380Z,6.90
2018-12-19T11:27:06.458Z,7.00
2018-12-19T11:29:34.200Z,6.90
2018-12-19T11:32:01.765Z,6.90
2018-12-19T11:34:29.376Z,6.90
2018-12-19T11:36:57.108Z,6.90
2018-12-19T11:39:24.949Z,7.00
2018-12-19T11:41:52.828Z,7.00
2018-12-19T11:44:20.753Z,7.10
2018-12-19T11:46:48.253Z,7.10
2018-12-19T11:49:15.842Z,7.10
2018-12-19T11:51:43.409Z,7.10
2018-12-19T11:54:11.953Z,7.20
2018-12-19T11:56:39.594Z,7.30
2018-12-19T11:59:07.981Z,7.30
2018-12-19T12:01:41.370Z,7.40
2018-12-19T12:04:07.180Z,7.50
2018-12-19T12:06:34.729Z,7.50
2018-12-19T12:09:02.320Z,7.50
2018-12-19T12:11:29.907Z,7.60
2018-12-19T12:13:57.614Z,7.60
2018-12-19T12:16:25.130Z,7.60
2018-12-19T12:18:52.724Z,7.50
2018-12-19T12:21:20.350Z,7.50
2018-12-19T12:23:48.016Z,7.60
2018-12-19T12:26:15.551Z,7.50
2018-12-19T12:28:43.160Z,7.50
2018-12-19T12:31:10.779Z,7.60
2018-12-19T12:33:38.438Z,7.70
2018-12-19T12:36:06.222Z,7.70
2018-12-19T12:38:34.191Z,7.70
2018-12-19T12:41:03.645Z,7.70
2018-12-19T12:43:31.577Z,7.70
2018-12-19T12:45:59.137Z,7.80
2018-12-19T12:48:27.514Z,7.70
2018-12-19T12:50:55.072Z,7.70
2018-12-19T12:53:22.733Z,7.70
2018-12-19T12:55:50.521Z,7.80
2018-12-19T12:58:18.086Z,7.70
2018-12-19T13:00:45.679Z,7.70
2018-12-19T13:03:14.190Z,7.70
2018-12-19T13:05:41.774Z,7.80
2018-12-19T13:08:09.642Z,7.90
2018-12-19T13:10:37.150Z,7.90
2018-12-19T13:13:04.817Z,7.90
2018-12-19T13:15:38.809Z,7.80
2018-12-19T13:18:06.445Z,7.80
2018-12-19T13:20:33.965Z,7.80
2018-12-19T13:23:01.742Z,7.80
2018-12-19T13:25:29.269Z,7.90
2018-12-19T13:27:57.156Z,7.90
2018-12-19T13:30:25.649Z,7.90
2018-12-19T13:32:53.209Z,8.00
2018-12-19T13:35:20.785Z,8.00
2018-12-19T13:37:48.653Z,7.90
2018-12-19T13:40:16.191Z,8.00
2018-12-19T13:42:43.756Z,8.00
2018-12-19T13:45:11.672Z,8.10
2018-12-19T13:47:39.234Z,8.10
2018-12-19T13:50:08.296Z,8.10
2018-12-19T13:52:35.855Z,8.10
2018-12-19T13:55:05.040Z,8.00
2018-12-19T13:57:33.543Z,8.10
2018-12-19T14:00:01.286Z,8.10
2018-12-19T14:02:28.847Z,8.10
2018-12-19T14:04:56.405Z,8.10
2018-12-19T14:07:24.245Z,8.10
2018-12-19T14:09:52.981Z,8.10
2018-12-19T14:12:20.824Z,8.10
2018-12-19T14:14:49.023Z,8.10
2018-12-19T14:17:16.968Z,8.10
2018-12-19T14:19:44.632Z,8.10
2018-12-19T14:22:13.112Z,8.20
2018-12-19T14:24:41.988Z,8.20
2018-12-19T14:27:10.077Z,8.20
2018-12-19T14:29:38.498Z,8.20
2018-12-19T14:32:06.425Z,8.20
2018-12-19T14:34:34.001Z,8.20
2018-12-19T14:37:02.002Z,8.10
2018-12-19T14:39:29.533Z,8.20
2018-12-19T14:41:57.241Z,8.20
2018-12-19T14:44:24.877Z,8.20
2018-12-19T14:46:52.508Z,8.20
2018-12-19T14:49:20.029Z,8.20
2018-12-19T14:51:47.929Z,8.20
2018-12-19T14:54:15.958Z,8.20
2018-12-19T14:56:43.517Z,8.20
2018-12-19T14:59:12.017Z,8.20
2018-12-19T15:01:39.768Z,8.30
2018-12-19T15:04:07.462Z,8.30
2018-12-19T15:06:35.861Z,8.40
2018-12-19T15:09:05.494Z,8.30
2018-12-19T15:11:33.042Z,8.40
2018-12-19T15:14:01.222Z,8.40
2018-12-19T15:16:28.985Z,8.30
2018-12-19T15:18:56.522Z,8.40
2018-12-19T15:21:24.102Z,8.40
2018-12-19T15:23:51.740Z,8.40
2018-12-19T15:26:19.500Z,8.50
2018-12-19T15:28:47.081Z,8.40
2018-12-19T15:31:14.721Z,8.50
2018-12-19T15:33:42.317Z,8.50
2018-12-19T15:36:10.310Z,8.50
2018-12-19T15:38:38.017Z,8.60
2018-12-19T15:41:06.362Z,8.60
2018-12-19T15:43:33.896Z,8.50
2018-12-19T15:46:02.064Z,8.50
2018-12-19T15:48:30.000Z,8.50
2018-12-19T15:50:57.553Z,8.50
2018-12-19T15:53:25.143Z,8.50
2018-12-19T15:55:52.747Z,8.50
2018-12-19T15:58:20.284Z,8.50
2018-12-19T16:00:47.925Z,8.50
2018-12-19T16:03:15.487Z,8.50
2018-12-19T16:05:43.107Z,8.50
2018-12-19T16:08:10.808Z,8.50
2018-12-19T16:10:39.477Z,8.50
2018-12-19T16:13:07.032Z,8.50
2018-12-19T16:15:34.739Z,8.50
2018-12-19T16:18:02.462Z,8.50
2018-12-19T16:20:30.486Z,8.50
2018-12-19T16:22:58.101Z,8.50
2018-12-19T16:25:25.637Z,8.60
2018-12-19T16:27:53.475Z,8.60
2018-12-19T16:30:21.045Z,8.50
2018-12-19T16:32:48.574Z,8.50
2018-12-19T16:35:16.449Z,9.90
2018-12-19T16:37:44.026Z,8.60
2018-12-19T16:40:11.605Z,8.60
2018-12-19T16:42:45.911Z,8.60
2018-12-19T16:45:10.157Z,8.60
2018-12-19T16:47:37.793Z,8.60
2018-12-19T16:50:06.457Z,8.60
2018-12-19T16:52:34.037Z,8.60
2018-12-19T16:55:01.579Z,8.60
2018-12-19T16:57:29.546Z,8.60
2018-12-19T16:59:57.366Z,8.60
2018-12-19T17:02:24.909Z,8.60
2018-12-19T17:04:52.455Z,8.60
2018-12-19T17:07:20.178Z,8.60
2018-12-19T17:09:47.708Z,8.70
2018-12-19T17:12:15.301Z,8.70
2018-12-19T17:14:42.853Z,8.60
2018-12-19T17:17:10.438Z,8.60
2018-12-19T17:19:37.965Z,8.60
2018-12-19T17:22:05.660Z,8.60
2018-12-19T17:24:38.774Z,8.60
2018-12-19T17:27:06.486Z,8.50
2018-12-19T17:29:34.050Z,8.60
2018-12-19T17:32:02.043Z,8.60
2018-12-19T17:34:29.581Z,8.50
2018-12-19T17:36:57.161Z,8.60
2018-12-19T17:39:24.850Z,8.50
2018-12-19T17:41:52.409Z,8.50
2018-12-19T17:44:19.943Z,8.60
2018-12-19T17:46:47.537Z,8.50
2018-12-19T17:49:15.337Z,8.40
2018-12-19T17:51:42.896Z,8.40
2018-12-19T17:54:10.456Z,8.30
2018-12-19T17:56:37.976Z,8.30
2018-12-19T17:59:05.716Z,8.30
2018-12-19T18:01:33.406Z,8.30
2018-12-19T18:04:00.985Z,8.40
2018-12-19T18:06:28.525Z,8.40
2018-12-19T18:08:56.566Z,8.40
2018-12-19T18:11:25.133Z,8.40
2018-12-19T18:13:53.225Z,8.40
2018-12-19T18:16:20.989Z,8.40
2018-12-19T18:18:48.618Z,8.40
2018-12-19T18:21:16.160Z,8.40
2018-12-19T18:23:43.706Z,8.40
2018-12-19T18:26:11.226Z,8.30
2018-12-19T18:28:38.800Z,8.30
2018-12-19T18:31:06.340Z,8.30
2018-12-19T18:33:33.903Z,8.40
2018-12-19T18:36:01.469Z,8.40
2018-12-19T18:38:28.995Z,8.40
2018-12-19T18:40:56.565Z,8.40
2018-12-19T18:43:24.118Z,8.50
2018-12-19T18:45:51.724Z,8.50
2018-12-19T18:48:19.269Z,8.50
2018-12-19T18:50:46.782Z,8.60
2018-12-19T18:53:16.066Z,8.50
2018-12-19T18:55:43.625Z,8.60
2018-12-19T18:58:11.237Z,8.50
2018-12-19T19:00:38.894Z,8.40
2018-12-19T19:03:06.656Z,8.30
2018-12-19T19:05:34.312Z,8.30
2018-12-19T19:08:01.909Z,8.40
2018-12-19T19:10:29.566Z,8.40
2018-12-19T19:12:57.083Z,8.40
2018-12-19T19:15:24.645Z,8.40
2018-12-19T19:17:52.201Z,8.40
2018-12-19T19:20:19.740Z,8.30
2018-12-19T19:22:47.309Z,8.30
2018-12-19T19:25:14.881Z,8.30
2018-12-19T19:27:42.441Z,8.30
2018-12-19T19:30:10.066Z,8.30
2018-12-19T19:32:37.587Z,8.40
2018-12-19T19:35:05.715Z,8.40
2018-12-19T19:37:33.705Z,8.40
2018-12-19T19:40:01.264Z,8.40
2018-12-19T19:42:28.828Z,8.40
2018-12-19T19:44:56.341Z,8.40
2018-12-19T19:47:23.897Z,8.40
2018-12-19T19:49:51.456Z,8.40
2018-12-19T19:52:19.065Z,8.50
2018-12-19T19:54:46.625Z,8.50
2018-12-19T19:57:14.442Z,8.50
2018-12-19T19:59:42.213Z,8.50
2018-12-19T20:02:09.749Z,8.50
2018-12-19T20:04:38.232Z,8.50
2018-12-19T20:07:05.866Z,8.50
2018-12-19T20:09:33.421Z,8.40
2018-12-19T20:12:00.948Z,8.30
2018-12-19T20:14:28.497Z,8.40
2018-12-19T20:17:01.633Z,8.40
2018-12-19T20:19:29.839Z,8.50
2018-12-19T20:21:58.341Z,8.50
2018-12-19T20:24:25.887Z,8.60
2018-12-19T20:26:53.516Z,8.60
2018-12-19T20:29:21.072Z,8.60
2018-12-19T20:31:48.771Z,8.60
2018-12-19T20:34:16.345Z,8.50
2018-12-19T20:36:44.002Z,8.60
2018-12-19T20:39:11.728Z,8.50
2018-12-19T20:41:40.250Z,8.60
2018-12-19T20:44:07.798Z,8.60
2018-12-19T20:46:35.329Z,8.60
2018-12-19T20:49:02.885Z,8.60
2018-12-19T20:51:30.442Z,8.60
2018-12-19T20:53:58.050Z,8.60
2018-12-19T20:56:25.643Z,8.60
2018-12-19T20:58:53.308Z,8.60
2018-12-19T21:01:20.940Z,8.60
2018-12-19T21:03:48.793Z,8.60
2018-12-19T21:06:16.381Z,8.60
2018-12-19T21:08:44.358Z,8.50
2018-12-19T21:11:11.927Z,8.60
2018-12-19T21:13:39.514Z,8.60
2018-12-19T21:16:07.159Z,8.60
2018-12-19T21:18:42.606Z,8.10
2018-12-19T21:21:10.319Z,8.50
2018-12-19T21:23:37.883Z,8.50
2018-12-19T21:26:05.507Z,8.50
2018-12-19T21:28:33.039Z,8.40
2018-12-19T21:31:00.606Z,8.40
2018-12-19T21:33:28.167Z,8.50
2018-12-19T21:35:56.401Z,8.50
2018-12-19T21:38:24.786Z,8.50
2018-12-19T21:40:52.504Z,8.60
2018-12-19T21:43:20.078Z,8.60
2018-12-19T21:45:51.695Z,8.60
2018-12-19T21:48:18.063Z,8.60
2018-12-19T21:50:45.582Z,8.60
2018-12-19T21:53:13.135Z,8.60
2018-12-19T21:55:40.743Z,8.60
2018-12-19T21:58:08.290Z,8.60
2018-12-19T22:00:36.982Z,8.60
2018-12-19T22:03:07.079Z,8.60
2018-12-19T22:05:35.136Z,8.60
2018-12-19T22:08:03.086Z,8.60
2018-12-19T22:10:30.644Z,8.60
2018-12-19T22:12:58.208Z,8.60
2018-12-19T22:15:25.764Z,8.60
2018-12-19T22:17:55.310Z,8.60
2018-12-19T22:20:23.022Z,8.60
2018-12-19T22:22:50.586Z,8.60
2018-12-19T22:25:18.140Z,8.60
2018-12-19T22:27:45.677Z,8.60
2018-12-19T22:30:13.794Z,8.60
2018-12-19T22:32:41.415Z,8.60
2018-12-19T22:35:08.973Z,8.60
2018-12-19T22:37:36.633Z,8.70
2018-12-19T22:40:07.023Z,8.60
2018-12-19T22:42:34.617Z,8.60
2018-12-19T22:45:03.050Z,8.60
2018-12-19T22:47:30.694Z,8.60
2018-12-19T22:49:58.223Z,8.50
2018-12-19T22:52:25.854Z,8.60
2018-12-19T22:54:53.493Z,8.60
2018-12-19T22:57:21.248Z,8.50
2018-12-19T22:59:48.973Z,8.50
2018-12-19T23:02:22.392Z,8.50
2018-12-19T23:04:50.017Z,8.50
2018-12-19T23:07:17.695Z,8.50
2018-12-19T23:09:45.257Z,8.50
2018-12-19T23:12:12.820Z,8.50
2018-12-19T23:14:40.515Z,8.50
2018-12-19T23:17:13.639Z,8.50
2018-12-19T23:19:41.293Z,8.60
2018-12-19T23:22:09.042Z,8.60
2018-12-19T23:24:36.556Z,8.60
2018-12-19T23:27:04.096Z,8.60
2018-12-19T23:29:31.642Z,8.60
2018-12-19T23:31:59.157Z,8.50
2018-12-19T23:34:26.726Z,8.50
2018-12-19T23:36:54.286Z,8.50
2018-12-19T23:39:21.870Z,8.50
2018-12-19T23:41:49.557Z,8.40
2018-12-19T23:44:22.521Z,8.40
2018-12-19T23:46:48.653Z,8.50
2018-12-19T23:49:16.237Z,8.50
2018-12-19T23:51:43.959Z,8.40
2018-12-19T23:54:11.713Z,8.40
2018-12-19T23:56:39.287Z,8.40
2018-12-19T23:59:06.920Z,8.50
